Time;durP1;ratioP1;P1;durP2;ratioP2;P2;SDS_P1;SDS_P2;PMS_P1;PMS_P2;Temp;Humidity;BMP_temperature;BMP_pressure;BME280_temperature;BME280_humidity;BME280_pressure;Samples;Min_cycle;Max_cycle;Signal;HPM_P1;HPM_P2
2022/11/06 00:02:21;;;;;;;588.47;527.87;;;;;;;;;;4954938;28;20414;-80
2022/11/06 00:04:47;;;;;;;582.60;522.15;;;;;;;;;;4970690;28;20424;-81
2022/11/06 00:07:13;;;;;;;580.05;519.60;;;;;;;;;;4969981;28;20900;-80
2022/11/06 00:09:40;;;;;;;579.40;518.72;;;;;;;;;;4969366;28;20753;-80
2022/11/06 00:12:06;;;;;;;580.40;520.60;;;;;;;;;;4970338;28;20938;-80
2022/11/06 00:14:32;;;;;;;579.67;519.28;;;;;;;;;;4952174;29;20465;-80
2022/11/06 00:16:58;;;;;;;574.38;514.00;;;;;;;;;;4968940;28;20429;-80
2022/11/06 00:19:24;;;;;;;582.53;522.10;;;;;;;;;;4967245;28;20426;-80
2022/11/06 00:21:50;;;;;;;578.05;517.40;;;;;;;;;;4952527;28;20405;-80
2022/11/06 00:24:16;;;;;;;579.17;518.83;;;;;;;;;;4952898;28;20738;-80
2022/11/06 00:26:42;;;;;;;585.53;526.40;;;;;;;;;;4968796;28;20859;-80
2022/11/06 00:29:12;;;;;;;583.10;524.28;;;;;;;;;;4952703;28;20881;-80
2022/11/06 00:31:38;;;;;;;579.22;519.10;;;;;;;;;;4953562;28;20833;-80
2022/11/06 00:34:08;;;;;;;579.80;519.20;;;;;;;;;;4952957;28;20519;-80
2022/11/06 00:36:34;;;;;;;578.30;517.75;;;;;;;;;;4953153;28;20446;-79
2022/11/06 00:39:00;;;;;;;572.40;511.92;;;;;;;;;;4967526;28;20426;-80
2022/11/06 00:41:27;;;;;;;571.80;511.50;;;;;;;;;;4953514;28;20802;-80
2022/11/06 00:43:54;;;;;;;575.97;515.72;;;;;;;;;;4953438;28;20406;-80
2022/11/06 00:46:21;;;;;;;569.83;509.92;;;;;;;;;;4952476;28;20461;-80
2022/11/06 00:48:47;;;;;;;564.28;504.48;;;;;;;;;;4968240;28;20428;-80
2022/11/06 00:51:14;;;;;;;566.15;506.23;;;;;;;;;;4952957;28;20418;-80
2022/11/06 00:53:41;;;;;;;567.38;507.15;;;;;;;;;;4968293;28;20418;-80
2022/11/06 00:56:11;;;;;;;565.33;505.25;;;;;;;;;;4952278;28;20437;-80
2022/11/06 00:58:38;;;;;;;565.33;505.02;;;;;;;;;;4952638;28;20405;-79
2022/11/06 01:01:11;;;;;;;564.10;504.20;;;;;;;;;;4952034;28;20972;-79
2022/11/06 01:03:38;;;;;;;563.67;503.48;;;;;;;;;;4953054;28;20418;-80
2022/11/06 01:06:05;;;;;;;557.83;497.77;;;;;;;;;;4952404;28;20414;-80
2022/11/06 01:08:31;;;;;;;565.90;506.02;;;;;;;;;;4967488;28;20786;-80
2022/11/06 01:10:57;;;;;;;560.65;500.92;;;;;;;;;;4967728;28;20418;-80
2022/11/06 01:13:23;;;;;;;564.92;506.73;;;;;;;;;;4967786;28;20501;-80
2022/11/06 01:15:49;;;;;;;560.40;501.20;;;;;;;;;;4952593;28;20516;-80
2022/11/06 01:18:15;;;;;;;559.38;500.35;;;;;;;;;;4952008;28;20469;-79
2022/11/06 01:20:41;;;;;;;563.93;504.13;;;;;;;;;;4952660;28;20412;-79
2022/11/06 01:23:07;;;;;;;555.25;496.42;;;;;;;;;;4953007;28;20485;-80
2022/11/06 01:25:33;;;;;;;561.47;501.25;;;;;;;;;;4967243;28;20409;-80
2022/11/06 01:27:59;;;;;;;560.25;501.05;;;;;;;;;;4950755;29;20489;-79
2022/11/06 01:30:25;;;;;;;559.78;500.40;;;;;;;;;;4951745;28;20414;-79
2022/11/06 01:32:52;;;;;;;555.83;496.75;;;;;;;;;;4966945;28;20426;-80
2022/11/06 01:35:18;;;;;;;559.03;500.08;;;;;;;;;;4951506;28;20477;-80
2022/11/06 01:37:44;;;;;;;558.15;498.75;;;;;;;;;;4952334;28;20477;-80
2022/11/06 01:40:10;;;;;;;559.35;500.75;;;;;;;;;;4951594;28;20409;-79
2022/11/06 01:42:36;;;;;;;564.03;504.73;;;;;;;;;;4951888;28;20402;-80
2022/11/06 01:45:05;;;;;;;561.35;502.33;;;;;;;;;;4966945;28;20426;-79
2022/11/06 01:47:31;;;;;;;560.65;501.33;;;;;;;;;;4951706;28;20414;-80
2022/11/06 01:50:00;;;;;;;554.93;495.77;;;;;;;;;;4951827;28;20492;-79
2022/11/06 01:52:27;;;;;;;556.60;497.77;;;;;;;;;;4967136;28;20932;-79
2022/11/06 01:54:55;;;;;;;556.50;497.47;;;;;;;;;;4951849;28;20426;-79
2022/11/06 01:57:21;;;;;;;554.75;495.40;;;;;;;;;;4966889;28;20489;-79
2022/11/06 01:59:48;;;;;;;557.73;498.63;;;;;;;;;;4951273;28;20903;-79
2022/11/06 02:02:16;;;;;;;553.13;494.30;;;;;;;;;;4951682;28;20501;-79
2022/11/06 02:04:43;;;;;;;565.38;507.27;;;;;;;;;;4966361;28;20425;-79
2022/11/06 02:07:09;;;;;;;561.03;503.60;;;;;;;;;;4952090;28;20410;-79
2022/11/06 02:09:35;;;;;;;569.38;511.50;;;;;;;;;;4951050;28;20416;-79
2022/11/06 02:12:05;;;;;;;563.17;505.38;;;;;;;;;;4951994;28;20417;-79
2022/11/06 02:14:40;;;;;;;565.67;507.67;;;;;;;;;;4966359;28;20453;-79
2022/11/06 02:17:20;;;;;;;563.17;505.27;;;;;;;;;;4951886;28;20865;-79
2022/11/06 02:19:46;;;;;;;568.28;510.52;;;;;;;;;;4950965;28;20890;-78
2022/11/06 02:22:15;;;;;;;565.17;507.70;;;;;;;;;;4966759;28;20472;-78
2022/11/06 02:24:54;;;;;;;569.65;512.25;;;;;;;;;;4965868;28;20436;-79
2022/11/06 02:27:24;;;;;;;565.90;508.65;;;;;;;;;;4967686;28;20890;-79
2022/11/06 02:29:53;;;;;;;568.80;511.00;;;;;;;;;;4952321;28;20778;-79
2022/11/06 02:32:39;;;;;;;563.67;506.00;;;;;;;;;;4968057;28;20454;-79
2022/11/06 02:35:20;;;;;;;566.83;508.98;;;;;;;;;;4952101;28;20773;-79
2022/11/06 02:37:47;;;;;;;566.40;509.08;;;;;;;;;;4950685;29;20413;-79
2022/11/06 02:40:14;;;;;;;570.33;512.85;;;;;;;;;;4950920;28;20410;-79
2022/11/06 02:42:43;;;;;;;568.53;510.73;;;;;;;;;;4951384;28;20421;-79
2022/11/06 02:45:10;;;;;;;571.60;513.77;;;;;;;;;;4966149;28;20476;-79
2022/11/06 02:47:37;;;;;;;570.27;511.73;;;;;;;;;;4951027;28;20434;-79
2022/11/06 02:50:11;;;;;;;567.45;509.45;;;;;;;;;;4951491;28;20782;-79
2022/11/06 02:52:55;;;;;;;569.50;511.57;;;;;;;;;;4952011;28;20429;-79
2022/11/06 02:55:30;;;;;;;570.05;511.90;;;;;;;;;;4950830;28;20897;-79
2022/11/06 02:57:58;;;;;;;568.80;510.98;;;;;;;;;;4951211;28;20422;-79
2022/11/06 03:00:26;;;;;;;566.10;507.83;;;;;;;;;;4950856;28;20568;-79
2022/11/06 03:03:00;;;;;;;571.57;513.47;;;;;;;;;;4952600;28;20418;-79
2022/11/06 03:05:31;;;;;;;575.95;517.75;;;;;;;;;;4954240;28;20436;-79
2022/11/06 03:08:16;;;;;;;567.33;509.03;;;;;;;;;;4970390;28;20505;-80
2022/11/06 03:10:45;;;;;;;575.33;516.33;;;;;;;;;;4969170;28;20398;-80
2022/11/06 03:13:16;;;;;;;570.13;511.80;;;;;;;;;;4953992;28;20927;-79
2022/11/06 03:15:45;;;;;;;570.08;511.88;;;;;;;;;;4968888;28;20429;-80
2022/11/06 03:18:27;;;;;;;569.47;511.23;;;;;;;;;;4954583;28;20410;-79
2022/11/06 03:20:53;;;;;;;572.60;514.55;;;;;;;;;;4969770;28;20414;-80
2022/11/06 03:23:24;;;;;;;568.77;511.17;;;;;;;;;;4954986;28;20420;-79
2022/11/06 03:25:52;;;;;;;575.95;517.10;;;;;;;;;;4969418;28;20905;-79
2022/11/06 03:28:27;;;;;;;575.45;517.53;;;;;;;;;;4969332;28;20417;-79
2022/11/06 03:30:55;;;;;;;576.67;517.83;;;;;;;;;;4954057;28;20426;-79
2022/11/06 03:33:30;;;;;;;578.17;520.08;;;;;;;;;;4954760;28;20890;-80
2022/11/06 03:36:08;;;;;;;580.38;522.75;;;;;;;;;;4967905;28;20926;-79
2022/11/06 03:38:36;;;;;;;571.17;513.38;;;;;;;;;;4969243;28;20429;-79
2022/11/06 03:41:05;;;;;;;573.45;515.35;;;;;;;;;;4969030;28;20874;-79
2022/11/06 03:43:34;;;;;;;565.67;507.55;;;;;;;;;;4969433;28;20421;-77
2022/11/06 03:46:01;;;;;;;568.78;510.98;;;;;;;;;;4954218;28;20499;-79
2022/11/06 03:48:36;;;;;;;571.15;513.20;;;;;;;;;;4954319;28;20493;-79
2022/11/06 03:51:23;;;;;;;570.50;511.95;;;;;;;;;;4969926;28;20908;-79
2022/11/06 03:53:51;;;;;;;572.63;514.63;;;;;;;;;;4937682;29;20653;-80
2022/11/06 03:56:24;;;;;;;569.88;511.25;;;;;;;;;;4954871;28;20430;-79
2022/11/06 03:58:51;;;;;;;580.78;523.50;;;;;;;;;;4969801;28;20424;-78
2022/11/06 04:01:20;;;;;;;577.70;520.63;;;;;;;;;;4969919;28;20909;-79
2022/11/06 04:03:46;;;;;;;581.42;524.38;;;;;;;;;;4970165;28;20481;-79
2022/11/06 04:06:31;;;;;;;579.87;523.07;;;;;;;;;;4970327;28;20418;-78
2022/11/06 04:14:31;;;;;;;575.07;518.00;;;;;;;;;;4968917;28;20422;-79
2022/11/06 04:16:59;;;;;;;583.73;526.67;;;;;;;;;;4954873;28;20491;-79
2022/11/06 04:19:25;;;;;;;571.35;514.55;;;;;;;;;;4954885;28;20452;-79
2022/11/06 04:21:51;;;;;;;578.17;521.43;;;;;;;;;;4954596;28;20755;-79
2022/11/06 04:27:36;;;;;;;578.33;521.03;;;;;;;;;;4950582;29;20914;-79
2022/11/06 04:30:06;;;;;;;583.03;525.50;;;;;;;;;;4953477;28;20414;-79
2022/11/06 04:32:44;;;;;;;579.80;522.67;;;;;;;;;;4967865;28;20420;-79
2022/11/06 04:35:17;;;;;;;581.40;524.25;;;;;;;;;;4968173;28;20444;-78
2022/11/06 04:37:57;;;;;;;591.13;535.00;;;;;;;;;;4952513;28;20769;-79
2022/11/06 04:40:27;;;;;;;586.45;529.28;;;;;;;;;;4967947;28;20505;-79
2022/11/06 04:42:59;;;;;;;590.45;534.30;;;;;;;;;;4968151;28;20557;-79
2022/11/06 04:45:40;;;;;;;587.35;530.97;;;;;;;;;;4967662;28;20827;-79
2022/11/06 04:48:07;;;;;;;588.80;531.33;;;;;;;;;;4952851;28;20405;-79
2022/11/06 04:50:36;;;;;;;588.83;531.35;;;;;;;;;;4953445;28;20410;-79
2022/11/06 04:53:03;;;;;;;588.03;529.93;;;;;;;;;;4953183;28;20507;-79
2022/11/06 04:55:29;;;;;;;587.78;529.92;;;;;;;;;;4968082;28;20429;-79
2022/11/06 04:57:55;;;;;;;589.60;531.20;;;;;;;;;;4952561;28;20409;-78
2022/11/06 05:00:22;;;;;;;585.88;527.60;;;;;;;;;;4952701;28;20422;-79
2022/11/06 05:02:48;;;;;;;587.33;529.03;;;;;;;;;;4966798;28;20953;-79
2022/11/06 05:05:14;;;;;;;588.17;530.40;;;;;;;;;;4953267;28;21009;-79
2022/11/06 05:07:40;;;;;;;588.33;529.67;;;;;;;;;;4967270;28;20414;-79
2022/11/06 05:10:06;;;;;;;586.05;528.13;;;;;;;;;;4967753;28;20461;-78
2022/11/06 05:12:32;;;;;;;584.72;526.75;;;;;;;;;;4951861;28;20905;-84
2022/11/06 05:14:58;;;;;;;585.83;526.85;;;;;;;;;;4966900;28;20438;-80
2022/11/06 05:17:24;;;;;;;579.13;521.30;;;;;;;;;;4967602;28;20872;-80
2022/11/06 05:19:50;;;;;;;583.13;524.90;;;;;;;;;;4952291;28;20440;-80
2022/11/06 05:25:01;;;;;;;584.63;526.23;;;;;;;;;;4968384;28;20425;-80
2022/11/06 05:27:27;;;;;;;582.55;524.10;;;;;;;;;;4967538;28;20457;-80
2022/11/06 05:29:53;;;;;;;583.93;525.47;;;;;;;;;;4952092;28;20418;-80
2022/11/06 05:32:19;;;;;;;583.50;525.10;;;;;;;;;;4965976;28;20429;-80
2022/11/06 05:34:45;;;;;;;582.47;524.13;;;;;;;;;;4951295;28;20480;-80
2022/11/06 05:37:11;;;;;;;580.75;522.03;;;;;;;;;;4952073;28;20424;-80
2022/11/06 05:39:37;;;;;;;577.70;519.35;;;;;;;;;;4951889;28;20409;-80
2022/11/06 05:42:03;;;;;;;577.37;518.63;;;;;;;;;;4967222;28;20413;-80
2022/11/06 05:44:29;;;;;;;578.35;519.63;;;;;;;;;;4966963;28;20501;-80
2022/11/06 05:46:56;;;;;;;581.77;522.77;;;;;;;;;;4951725;28;20501;-80
2022/11/06 05:49:22;;;;;;;579.85;521.65;;;;;;;;;;4952313;28;20832;-80
2022/11/06 05:51:48;;;;;;;583.55;524.65;;;;;;;;;;4967710;28;20492;-80
2022/11/06 05:54:14;;;;;;;580.75;521.95;;;;;;;;;;4966488;28;20418;-81
2022/11/06 05:56:40;;;;;;;581.67;522.08;;;;;;;;;;4966065;28;20467;-80
2022/11/06 05:59:06;;;;;;;580.28;520.38;;;;;;;;;;4967315;28;20477;-80
2022/11/06 06:01:32;;;;;;;583.47;523.97;;;;;;;;;;4966478;28;20428;-79
2022/11/06 06:03:58;;;;;;;587.23;527.93;;;;;;;;;;4951693;28;20428;-80
2022/11/06 06:06:24;;;;;;;578.70;519.15;;;;;;;;;;4951368;28;20417;-80
2022/11/06 06:08:50;;;;;;;581.08;521.90;;;;;;;;;;4951638;28;20445;-80
2022/11/06 06:11:16;;;;;;;580.35;521.15;;;;;;;;;;4949949;29;20417;-80
2022/11/06 06:13:43;;;;;;;581.15;521.60;;;;;;;;;;4951812;28;20414;-80
2022/11/06 06:16:09;;;;;;;580.75;521.50;;;;;;;;;;4965861;28;20870;-80
2022/11/06 06:18:35;;;;;;;576.30;517.50;;;;;;;;;;4951972;28;20863;-79
2022/11/06 06:21:01;;;;;;;583.45;523.75;;;;;;;;;;4965578;28;20525;-80
2022/11/06 06:23:27;;;;;;;579.22;520.17;;;;;;;;;;4951888;28;20420;-83
2022/11/06 06:25:53;;;;;;;580.50;521.20;;;;;;;;;;4951685;28;20549;-79
2022/11/06 06:28:19;;;;;;;574.78;515.65;;;;;;;;;;4967537;28;20520;-78
2022/11/06 06:30:45;;;;;;;576.83;517.83;;;;;;;;;;4951296;28;20413;-78
2022/11/06 06:33:11;;;;;;;577.58;518.88;;;;;;;;;;4966394;28;20800;-79
2022/11/06 06:35:37;;;;;;;577.17;517.78;;;;;;;;;;4965612;28;20437;-82
2022/11/06 06:38:03;;;;;;;578.53;519.40;;;;;;;;;;4968045;28;20510;-82
2022/11/06 06:40:29;;;;;;;577.83;518.95;;;;;;;;;;4970514;28;20417;-83
2022/11/06 06:42:56;;;;;;;575.92;516.72;;;;;;;;;;4969931;28;20440;-82
2022/11/06 06:45:22;;;;;;;575.55;516.42;;;;;;;;;;4953761;28;20421;-80
2022/11/06 06:47:48;;;;;;;575.42;516.25;;;;;;;;;;4970330;28;20916;-81
2022/11/06 06:50:14;;;;;;;576.80;517.67;;;;;;;;;;4954303;28;20437;-83
2022/11/06 06:52:40;;;;;;;575.35;515.88;;;;;;;;;;4969244;28;20468;-77
2022/11/06 06:55:06;;;;;;;574.78;515.67;;;;;;;;;;4970784;28;20949;-84
2022/11/06 06:57:33;;;;;;;572.53;513.83;;;;;;;;;;4970476;28;20414;-83
2022/11/06 06:59:59;;;;;;;578.90;519.60;;;;;;;;;;4970016;28;20464;-80
2022/11/06 07:02:25;;;;;;;573.13;514.22;;;;;;;;;;4954217;28;20429;-80
2022/11/06 07:04:51;;;;;;;577.13;518.05;;;;;;;;;;4954480;28;20406;-80
2022/11/06 07:07:17;;;;;;;576.05;517.28;;;;;;;;;;4970021;28;20466;-80
2022/11/06 07:09:43;;;;;;;575.00;516.45;;;;;;;;;;4969903;28;20414;-81
2022/11/06 07:12:09;;;;;;;583.70;524.00;;;;;;;;;;4969255;28;20472;-80
2022/11/06 07:14:35;;;;;;;574.30;515.20;;;;;;;;;;4969648;28;20516;-80
2022/11/06 07:17:01;;;;;;;580.07;520.37;;;;;;;;;;4968741;28;20417;-76
2022/11/06 07:19:27;;;;;;;577.70;518.30;;;;;;;;;;4938195;29;20425;-75
2022/11/06 07:21:53;;;;;;;577.80;518.90;;;;;;;;;;4955377;28;20488;-77
2022/11/06 07:24:19;;;;;;;578.15;519.25;;;;;;;;;;4955991;28;20464;-77
2022/11/06 07:26:45;;;;;;;576.17;517.13;;;;;;;;;;4955431;28;20413;-77
2022/11/06 07:29:12;;;;;;;574.70;515.05;;;;;;;;;;4956412;28;20413;-78
2022/11/06 07:31:38;;;;;;;572.08;512.88;;;;;;;;;;4971272;28;20409;-77
2022/11/06 07:34:04;;;;;;;575.45;516.25;;;;;;;;;;4956005;28;20468;-77
2022/11/06 07:36:31;;;;;;;575.53;516.45;;;;;;;;;;4954449;29;20429;-76
2022/11/06 07:38:57;;;;;;;580.55;521.50;;;;;;;;;;4970841;28;20477;-77
2022/11/06 07:41:23;;;;;;;577.40;518.35;;;;;;;;;;4970869;28;20424;-77
2022/11/06 07:43:49;;;;;;;579.23;520.27;;;;;;;;;;4954752;28;20885;-77
2022/11/06 07:46:16;;;;;;;580.00;520.95;;;;;;;;;;4955347;28;20418;-79
2022/11/06 07:48:42;;;;;;;579.25;520.25;;;;;;;;;;4969421;28;20769;-74
2022/11/06 07:51:08;;;;;;;578.53;518.95;;;;;;;;;;4955098;28;20418;-86
2022/11/06 07:53:35;;;;;;;579.92;521.22;;;;;;;;;;4954982;28;20793;-77
2022/11/06 07:56:01;;;;;;;581.13;522.10;;;;;;;;;;4955127;28;20926;-78
2022/11/06 07:58:27;;;;;;;575.90;517.33;;;;;;;;;;4954486;28;20923;-77
2022/11/06 08:00:55;;;;;;;581.75;522.78;;;;;;;;;;4968085;28;20418;-83
2022/11/06 08:03:21;;;;;;;580.58;521.42;;;;;;;;;;4970964;28;20432;-82
2022/11/06 08:05:48;;;;;;;577.22;518.17;;;;;;;;;;4970007;28;20410;-81
2022/11/06 08:08:14;;;;;;;580.15;520.55;;;;;;;;;;4970636;28;20418;-81
2022/11/06 08:10:42;;;;;;;581.37;522.17;;;;;;;;;;4969989;28;20511;-85
2022/11/06 08:13:12;;;;;;;582.33;523.30;;;;;;;;;;4952978;28;20905;-77
2022/11/06 08:15:38;;;;;;;581.60;522.50;;;;;;;;;;4954436;28;20430;-78
2022/11/06 08:18:05;;;;;;;585.92;526.42;;;;;;;;;;4954159;28;20421;-85
2022/11/06 08:20:31;;;;;;;580.55;521.22;;;;;;;;;;4937326;29;20472;-80
2022/11/06 08:22:59;;;;;;;590.57;531.17;;;;;;;;;;4968721;28;20413;-82
2022/11/06 08:25:25;;;;;;;588.42;528.72;;;;;;;;;;4969435;28;20433;-82
2022/11/06 08:27:54;;;;;;;591.25;531.95;;;;;;;;;;4969467;28;20508;-81
2022/11/06 08:30:20;;;;;;;590.70;531.03;;;;;;;;;;4970165;28;20482;-82
2022/11/06 08:32:46;;;;;;;588.22;528.70;;;;;;;;;;4954981;28;20413;-82
2022/11/06 08:35:12;;;;;;;592.03;532.63;;;;;;;;;;4937638;29;20453;-81
2022/11/06 08:37:38;;;;;;;584.53;524.45;;;;;;;;;;4953688;28;20418;-81
2022/11/06 08:40:04;;;;;;;593.03;533.00;;;;;;;;;;4968447;28;20429;-81
2022/11/06 08:42:30;;;;;;;590.33;530.90;;;;;;;;;;4969079;28;20425;-81
2022/11/06 08:44:56;;;;;;;591.65;532.15;;;;;;;;;;4953985;28;20492;-81
2022/11/06 08:47:22;;;;;;;600.67;540.45;;;;;;;;;;4967451;28;20425;-83
2022/11/06 08:49:48;;;;;;;590.70;531.00;;;;;;;;;;4952375;28;20429;-77
2022/11/06 08:52:14;;;;;;;604.00;543.60;;;;;;;;;;4951324;28;20421;-76
2022/11/06 08:54:40;;;;;;;595.90;535.80;;;;;;;;;;4952569;28;20472;-91
2022/11/06 08:57:06;;;;;;;603.55;543.33;;;;;;;;;;4952758;28;20418;-82
2022/11/06 08:59:32;;;;;;;601.17;541.08;;;;;;;;;;4967019;28;20421;-79
2022/11/06 09:01:59;;;;;;;607.28;546.60;;;;;;;;;;4965753;28;20435;-83
2022/11/06 09:04:25;;;;;;;613.95;553.13;;;;;;;;;;4934495;29;20418;-82
2022/11/06 09:06:52;;;;;;;607.90;547.50;;;;;;;;;;4966824;28;20481;-84
2022/11/06 09:09:18;;;;;;;614.13;553.13;;;;;;;;;;4967305;28;20413;-83
2022/11/06 09:11:44;;;;;;;611.08;550.47;;;;;;;;;;4968190;28;20444;-80
2022/11/06 09:14:10;;;;;;;618.20;556.90;;;;;;;;;;4966988;28;20410;-81
2022/11/06 09:16:36;;;;;;;615.55;554.72;;;;;;;;;;4952816;28;20528;-81
2022/11/06 09:19:02;;;;;;;619.55;558.20;;;;;;;;;;4951692;28;20480;-84
2022/11/06 09:21:28;;;;;;;625.83;564.47;;;;;;;;;;4967514;28;20424;-81
2022/11/06 09:23:54;;;;;;;624.60;563.00;;;;;;;;;;4966100;28;20414;-83
2022/11/06 09:26:20;;;;;;;621.80;561.20;;;;;;;;;;4967307;28;20421;-82
2022/11/06 09:28:46;;;;;;;625.05;564.58;;;;;;;;;;4967485;28;20765;-84
2022/11/06 09:31:13;;;;;;;626.70;566.00;;;;;;;;;;4952256;28;20414;-82
2022/11/06 09:33:39;;;;;;;621.40;561.17;;;;;;;;;;4968457;28;20512;-81
2022/11/06 09:36:05;;;;;;;624.60;564.10;;;;;;;;;;4967020;28;20442;-81
2022/11/06 09:38:31;;;;;;;628.22;566.40;;;;;;;;;;4953228;28;20488;-83
2022/11/06 09:40:59;;;;;;;625.35;564.20;;;;;;;;;;4968275;28;20501;-82
2022/11/06 09:43:34;;;;;;;629.22;567.03;;;;;;;;;;4966930;28;20426;-80
2022/11/06 09:46:17;;;;;;;628.72;567.78;;;;;;;;;;4966335;28;20421;-90
2022/11/06 09:48:45;;;;;;;629.95;568.67;;;;;;;;;;4966696;28;20416;-86
2022/11/06 09:51:11;;;;;;;633.08;571.83;;;;;;;;;;4966959;28;20453;-81
2022/11/06 09:53:41;;;;;;;631.30;570.28;;;;;;;;;;4967778;28;20414;-80
2022/11/06 09:56:10;;;;;;;633.10;571.45;;;;;;;;;;4951724;28;20434;-80
2022/11/06 09:58:38;;;;;;;630.55;569.20;;;;;;;;;;4951089;28;20417;-80
2022/11/06 10:01:16;;;;;;;634.58;573.35;;;;;;;;;;4967442;28;20450;-80
2022/11/06 10:03:49;;;;;;;631.88;570.90;;;;;;;;;;4967575;28;20460;-79
2022/11/06 10:06:20;;;;;;;641.80;580.00;;;;;;;;;;4949406;28;20456;-80
2022/11/06 10:08:47;;;;;;;638.00;576.80;;;;;;;;;;4966359;28;20422;-80
2022/11/06 10:11:13;;;;;;;644.38;582.38;;;;;;;;;;4965325;28;20449;-81
2022/11/06 10:13:45;;;;;;;639.88;577.83;;;;;;;;;;4948220;28;20434;-80
2022/11/06 10:16:11;;;;;;;648.13;585.47;;;;;;;;;;4965380;28;20909;-80
2022/11/06 10:19:14;;;;;;;646.67;584.67;;;;;;;;;;4971477;28;20519;-95
2022/11/06 10:22:07;;;;;;;646.67;584.83;;;;;;;;;;4966237;28;20901;-86
2022/11/06 10:24:33;;;;;;;648.55;585.83;;;;;;;;;;4949699;29;20418;-79
2022/11/06 10:27:02;;;;;;;652.05;589.75;;;;;;;;;;4966626;28;20422;-79
2022/11/06 10:29:28;;;;;;;649.00;586.20;;;;;;;;;;4965506;28;20961;-78
2022/11/06 10:32:00;;;;;;;650.28;588.03;;;;;;;;;;4966159;28;20465;-78
2022/11/06 10:34:34;;;;;;;651.78;589.00;;;;;;;;;;4950953;28;20410;-78
2022/11/06 10:37:05;;;;;;;652.00;589.08;;;;;;;;;;4966994;28;20422;-79
2022/11/06 10:39:33;;;;;;;656.25;592.78;;;;;;;;;;4952027;28;20460;-80
2022/11/06 10:42:03;;;;;;;659.67;596.38;;;;;;;;;;4966367;28;20421;-84
2022/11/06 10:44:35;;;;;;;666.05;602.25;;;;;;;;;;4964370;28;20436;-79
2022/11/06 10:47:06;;;;;;;664.10;600.40;;;;;;;;;;4966128;28;20432;-84
2022/11/06 10:49:35;;;;;;;660.63;596.28;;;;;;;;;;4965807;28;20417;-81
2022/11/06 10:52:10;;;;;;;660.80;596.95;;;;;;;;;;4965760;28;20529;-81
2022/11/06 10:54:51;;;;;;;665.42;601.60;;;;;;;;;;4964324;28;20894;-83
2022/11/06 10:57:38;;;;;;;662.13;598.00;;;;;;;;;;4964780;28;20508;-83
2022/11/06 11:00:05;;;;;;;667.95;605.05;;;;;;;;;;4966037;28;20627;-83
2022/11/06 11:02:33;;;;;;;673.53;610.03;;;;;;;;;;4965878;28;20433;-82
2022/11/06 11:04:59;;;;;;;663.03;600.17;;;;;;;;;;4965462;28;20426;-85
2022/11/06 11:07:28;;;;;;;668.53;605.33;;;;;;;;;;4964813;28;20475;-83
2022/11/06 11:09:55;;;;;;;666.55;603.55;;;;;;;;;;4965283;28;20751;-83
2022/11/06 11:12:21;;;;;;;670.92;607.47;;;;;;;;;;4948715;28;20454;-83
2022/11/06 11:15:03;;;;;;;666.80;603.78;;;;;;;;;;4965840;28;20465;-83
2022/11/06 11:17:29;;;;;;;664.10;600.65;;;;;;;;;;4966237;28;20822;-82
2022/11/06 11:19:55;;;;;;;659.90;597.00;;;;;;;;;;4965541;28;20421;-82
2022/11/06 11:22:23;;;;;;;670.10;606.90;;;;;;;;;;4964433;28;20428;-82
2022/11/06 11:25:03;;;;;;;659.80;596.47;;;;;;;;;;4968989;28;20425;-82
2022/11/06 11:27:31;;;;;;;665.60;602.22;;;;;;;;;;4968855;28;25176;-82
2022/11/06 11:29:57;;;;;;;659.58;596.30;;;;;;;;;;4971691;28;20422;-82
2022/11/06 11:32:23;;;;;;;661.45;597.83;;;;;;;;;;4951695;28;20500;-82
2022/11/06 11:34:51;;;;;;;653.65;590.42;;;;;;;;;;4969810;28;20477;-81
2022/11/06 11:37:23;;;;;;;661.20;597.80;;;;;;;;;;4967747;28;20432;-82
2022/11/06 11:39:49;;;;;;;650.85;587.72;;;;;;;;;;4969045;28;20420;-83
2022/11/06 11:42:17;;;;;;;656.70;593.60;;;;;;;;;;4936493;29;20972;-83
2022/11/06 11:44:46;;;;;;;656.25;593.03;;;;;;;;;;4968651;28;20447;-83
2022/11/06 11:47:22;;;;;;;653.08;589.67;;;;;;;;;;4955836;28;20862;-83
2022/11/06 11:49:48;;;;;;;657.00;593.30;;;;;;;;;;4967321;28;20508;-82
2022/11/06 11:52:17;;;;;;;656.78;593.25;;;;;;;;;;4952270;28;20481;-84
2022/11/06 11:54:47;;;;;;;655.60;592.25;;;;;;;;;;4968217;28;20430;-78
2022/11/06 11:57:21;;;;;;;657.10;593.55;;;;;;;;;;4968279;28;20917;-78
2022/11/06 11:59:56;;;;;;;654.17;590.13;;;;;;;;;;4969337;28;20426;-81
2022/11/06 12:02:40;;;;;;;660.38;596.67;;;;;;;;;;4968754;28;20517;-79
2022/11/06 12:05:10;;;;;;;655.15;590.85;;;;;;;;;;4969806;28;20985;-79
2022/11/06 12:07:38;;;;;;;657.00;592.40;;;;;;;;;;4969687;28;20742;-79
2022/11/06 12:10:17;;;;;;;657.37;593.37;;;;;;;;;;4954819;28;20814;-79
2022/11/06 12:12:47;;;;;;;658.58;594.33;;;;;;;;;;4969651;28;20444;-79
2022/11/06 12:15:21;;;;;;;658.85;594.65;;;;;;;;;;4968606;28;20789;-79
2022/11/06 12:17:52;;;;;;;659.05;594.78;;;;;;;;;;4970003;28;20434;-79
2022/11/06 12:20:22;;;;;;;657.13;593.00;;;;;;;;;;4954885;28;20418;-79
2022/11/06 12:22:50;;;;;;;661.00;596.43;;;;;;;;;;4969024;28;21065;-80
2022/11/06 12:25:20;;;;;;;660.05;595.70;;;;;;;;;;4969290;28;20426;-80
2022/11/06 12:27:47;;;;;;;669.90;605.10;;;;;;;;;;4969644;28;20905;-80
2022/11/06 12:30:17;;;;;;;668.28;603.45;;;;;;;;;;4970051;28;20476;-79
2022/11/06 12:32:43;;;;;;;671.42;606.35;;;;;;;;;;4954498;28;20976;-79
2022/11/06 12:35:23;;;;;;;677.55;612.38;;;;;;;;;;4952746;28;20466;-79
2022/11/06 12:38:06;;;;;;;673.58;608.42;;;;;;;;;;4953791;28;20460;-81
2022/11/06 12:40:36;;;;;;;674.22;609.05;;;;;;;;;;4969605;28;20878;-78
2022/11/06 12:43:14;;;;;;;677.28;612.00;;;;;;;;;;4968204;28;20476;-77
2022/11/06 12:45:40;;;;;;;676.60;611.28;;;;;;;;;;4954288;28;20461;-79
2022/11/06 12:48:18;;;;;;;672.03;606.83;;;;;;;;;;4953944;28;20414;-80
2022/11/06 12:51:08;;;;;;;678.60;613.45;;;;;;;;;;4970267;28;20510;-81
2022/11/06 12:53:45;;;;;;;674.25;608.83;;;;;;;;;;4968963;28;20433;-87
2022/11/06 12:56:11;;;;;;;678.20;613.28;;;;;;;;;;4968712;28;20493;-78
2022/11/06 12:58:43;;;;;;;674.90;610.03;;;;;;;;;;4953131;28;20418;-83
2022/11/06 13:01:18;;;;;;;672.92;608.22;;;;;;;;;;4969190;28;20445;-83
2022/11/06 13:04:03;;;;;;;674.53;609.45;;;;;;;;;;4968869;28;25097;-83
2022/11/06 13:06:48;;;;;;;674.35;609.45;;;;;;;;;;4968885;28;25150;-82
2022/11/06 13:09:30;;;;;;;669.00;604.00;;;;;;;;;;4952749;28;20461;-82
2022/11/06 13:12:06;;;;;;;668.17;603.50;;;;;;;;;;4968619;28;20993;-82
2022/11/06 13:14:38;;;;;;;672.22;607.50;;;;;;;;;;4968822;28;20457;-76
2022/11/06 13:17:08;;;;;;;671.95;607.35;;;;;;;;;;4968605;28;20430;-76
2022/11/06 13:19:46;;;;;;;671.70;607.05;;;;;;;;;;4968620;28;20421;-81
2022/11/06 13:22:19;;;;;;;666.28;601.75;;;;;;;;;;4968326;28;20430;-87
2022/11/06 13:25:00;;;;;;;672.35;607.55;;;;;;;;;;4967362;28;20425;-87
2022/11/06 13:27:38;;;;;;;671.40;606.15;;;;;;;;;;4967347;28;25097;-85
2022/11/06 13:30:25;;;;;;;667.63;602.42;;;;;;;;;;4967981;28;20440;-82
2022/11/06 13:33:03;;;;;;;667.97;602.78;;;;;;;;;;4951993;29;20421;-85
2022/11/06 13:35:30;;;;;;;670.95;605.78;;;;;;;;;;4968634;28;20469;-84
2022/11/06 13:37:57;;;;;;;668.92;604.30;;;;;;;;;;4968268;28;20418;-83
2022/11/06 13:40:27;;;;;;;667.58;602.67;;;;;;;;;;4953420;28;20889;-82
2022/11/06 13:43:13;;;;;;;664.00;598.80;;;;;;;;;;4969062;28;20425;-85
2022/11/06 13:45:46;;;;;;;665.70;600.50;;;;;;;;;;4951490;28;20421;-84
2022/11/06 13:48:32;;;;;;;664.97;599.53;;;;;;;;;;4954137;28;20453;-85
2022/11/06 13:50:58;;;;;;;664.80;599.67;;;;;;;;;;4953649;29;20449;-88
2022/11/06 13:53:38;;;;;;;666.20;601.00;;;;;;;;;;4968377;28;20437;-83
2022/11/06 13:56:08;;;;;;;667.60;602.50;;;;;;;;;;4952184;28;20440;-82
2022/11/06 13:58:38;;;;;;;671.20;605.50;;;;;;;;;;4968168;28;20425;-85
2022/11/06 14:01:16;;;;;;;668.95;603.55;;;;;;;;;;4968710;28;20504;-84
2022/11/06 14:03:45;;;;;;;665.08;599.88;;;;;;;;;;4968470;28;20430;-86
2022/11/06 14:06:15;;;;;;;669.75;604.55;;;;;;;;;;4968737;28;20747;-84
2022/11/06 14:09:04;;;;;;;662.27;596.97;;;;;;;;;;4968211;28;20493;-84
2022/11/06 14:11:38;;;;;;;665.05;599.55;;;;;;;;;;4968500;28;20398;-82
2022/11/06 14:14:06;;;;;;;659.13;593.80;;;;;;;;;;4968825;28;20924;-83
2022/11/06 14:16:33;;;;;;;663.88;598.47;;;;;;;;;;4952428;28;20900;-85